createdAt,value
2022-08-22T00:03:00.888Z,0.00
2022-08-22T00:03:07.955Z,0.00
2022-08-22T00:04:41.444Z,0.00
2022-08-22T00:12:56.211Z,0.00
2022-08-22T00:20:34.081Z,0.00
2022-08-22T00:25:33.740Z,0.00
2022-08-22T00:30:33.886Z,0.00
2022-08-22T00:35:33.948Z,0.00
2022-08-22T00:40:33.731Z,0.00
2022-08-22T00:45:33.721Z,0.00
2022-08-22T00:50:33.611Z,0.00
2022-08-22T00:55:34.874Z,0.00
2022-08-22T01:00:36.651Z,0.00
2022-08-22T01:05:33.265Z,0.00
2022-08-22T01:10:37.130Z,0.00
2022-08-22T01:24:24.204Z,0.00
2022-08-22T01:29:28.546Z,0.00
2022-08-22T01:34:24.119Z,0.00
2022-08-22T01:39:23.071Z,0.00
2022-08-22T01:44:23.285Z,0.00
2022-08-22T01:53:42.893Z,0.00
2022-08-22T01:58:42.703Z,0.00
2022-08-22T02:03:42.662Z,0.00
2022-08-22T02:33:04.491Z,0.00
2022-08-22T02:38:04.359Z,0.00
2022-08-22T02:43:04.426Z,0.00
2022-08-22T02:48:04.141Z,0.00
2022-08-22T02:53:04.464Z,0.00
2022-08-22T02:58:04.219Z,0.00
2022-08-22T03:03:03.936Z,0.00
2022-08-22T03:11:52.466Z,0.00
2022-08-22T03:16:52.171Z,0.00
2022-08-22T03:21:52.053Z,0.00
2022-08-22T03:26:52.095Z,0.00
2022-08-22T03:31:52.014Z,0.00
2022-08-22T03:36:52.071Z,0.00
2022-08-22T05:52:34.083Z,759.38
2022-08-22T06:11:55.009Z,967.50
2022-08-22T06:18:20.361Z,956.25
2022-08-22T06:23:20.352Z,922.50
2022-08-22T06:28:20.273Z,1147.50
2022-08-22T06:33:20.236Z,1029.38
2022-08-22T06:38:20.345Z,1147.50
2022-08-22T06:43:20.164Z,1203.75
2022-08-22T06:48:27.166Z,1501.88
2022-08-22T06:53:28.111Z,1642.50
2022-08-22T06:58:33.971Z,1800.00
2022-08-22T07:03:20.801Z,1867.50
2022-08-22T07:08:22.760Z,1850.62
2022-08-22T07:13:19.577Z,1850.62
2022-08-22T07:18:19.648Z,1884.38
2022-08-22T07:23:19.706Z,1940.62
2022-08-22T07:28:19.466Z,2064.38
2022-08-22T07:33:26.988Z,1901.25
2022-08-22T07:38:20.344Z,2025.00
2022-08-22T07:43:19.377Z,2019.38
2022-08-22T07:48:25.560Z,1985.62
2022-08-22T07:53:20.087Z,2328.75
2022-08-22T07:58:19.150Z,2182.50
2022-08-22T08:03:20.321Z,2306.25
2022-08-22T08:08:29.837Z,2441.25
2022-08-22T08:13:26.556Z,815.62
2022-08-22T08:18:18.880Z,669.38
2022-08-22T08:23:18.763Z,506.25
2022-08-22T08:28:19.679Z,461.25
2022-08-22T08:33:26.159Z,472.50
2022-08-22T08:38:19.704Z,455.62
2022-08-22T08:43:18.555Z,450.00
2022-08-22T08:48:18.685Z,455.62
2022-08-22T08:53:18.472Z,528.75
2022-08-22T08:58:18.477Z,545.62
2022-08-22T09:05:07.832Z,613.12
2022-08-22T09:10:06.632Z,641.25
2022-08-22T09:15:14.127Z,624.38
2022-08-22T09:20:17.615Z,607.50
2022-08-22T09:25:07.726Z,624.38
2022-08-22T09:30:06.289Z,618.75
2022-08-22T09:35:06.132Z,658.12
2022-08-22T09:40:06.130Z,686.25
2022-08-22T09:45:08.253Z,669.38
2022-08-22T09:50:06.015Z,630.00
2022-08-22T09:55:08.863Z,669.38
2022-08-22T10:00:05.778Z,641.25
2022-08-22T10:05:41.080Z,686.25
2022-08-22T10:10:06.614Z,669.38
2022-08-22T10:15:06.914Z,658.12
2022-08-22T10:20:14.203Z,585.00
2022-08-22T10:25:05.541Z,579.38
2022-08-22T10:30:05.636Z,624.38
2022-08-22T10:35:07.895Z,585.00
2022-08-22T10:40:05.348Z,579.38
2022-08-22T10:45:05.290Z,568.12
2022-08-22T10:50:08.672Z,483.75
2022-08-22T10:55:09.657Z,483.75
2022-08-22T11:00:05.016Z,444.38
2022-08-22T11:05:04.961Z,410.62
2022-08-22T11:10:04.944Z,433.12
2022-08-22T11:15:14.111Z,466.88
2022-08-22T11:22:37.689Z,495.00
2022-08-22T11:28:54.784Z,478.12
2022-08-22T11:33:54.591Z,438.75
2022-08-22T11:38:54.598Z,433.12
2022-08-22T11:43:54.427Z,438.75
2022-08-22T11:48:54.415Z,455.62
2022-08-22T11:53:54.336Z,478.12
2022-08-22T11:58:54.242Z,478.12
2022-08-22T12:03:58.106Z,483.75
2022-08-22T12:08:54.001Z,528.75
2022-08-22T12:14:02.513Z,545.62
2022-08-22T12:19:04.374Z,495.00
2022-08-22T12:24:05.949Z,556.88
2022-08-22T12:28:53.824Z,562.50
2022-08-22T12:33:53.792Z,573.75
2022-08-22T12:38:53.579Z,601.88
2022-08-22T12:43:53.608Z,579.38
2022-08-22T12:48:53.574Z,568.12
2022-08-22T12:53:53.484Z,551.25
2022-08-22T12:58:53.481Z,540.00
2022-08-22T13:03:53.448Z,534.38
2022-08-22T13:08:53.367Z,523.12
2022-08-22T13:13:56.372Z,478.12
2022-08-22T13:18:56.065Z,495.00
2022-08-22T13:23:52.968Z,517.50
2022-08-22T13:29:23.967Z,534.38
2022-08-22T13:33:54.029Z,540.00
2022-08-22T13:38:52.810Z,523.12
2022-08-22T13:43:52.962Z,506.25
2022-08-22T13:48:54.162Z,517.50
2022-08-22T13:54:01.921Z,551.25
2022-08-22T13:58:53.490Z,568.12
2022-08-22T14:03:52.549Z,585.00
2022-08-22T14:08:52.469Z,613.12
2022-08-22T14:13:52.289Z,618.75
2022-08-22T14:18:55.364Z,641.25
2022-08-22T14:23:52.201Z,646.88
2022-08-22T14:28:52.379Z,630.00
2022-08-22T14:33:52.175Z,618.75
2022-08-22T14:38:52.044Z,607.50
2022-08-22T14:43:51.956Z,624.38
2022-08-22T14:48:51.995Z,691.88
2022-08-22T14:53:51.784Z,641.25
2022-08-22T14:58:52.025Z,596.25
2022-08-22T15:03:51.799Z,551.25
2022-08-22T15:08:51.726Z,540.00
2022-08-22T15:13:51.784Z,517.50
2022-08-22T15:18:54.611Z,523.12
2022-08-22T15:23:51.372Z,472.50
2022-08-22T15:28:52.485Z,421.88
2022-08-22T15:33:51.213Z,450.00
2022-08-22T15:38:51.465Z,433.12
2022-08-22T15:43:51.174Z,405.00
2022-08-22T15:48:52.382Z,405.00
2022-08-22T15:53:51.158Z,382.50
2022-08-22T15:58:59.043Z,365.62
2022-08-22T16:03:58.288Z,360.00
2022-08-22T16:08:50.825Z,365.62
2022-08-22T16:13:50.705Z,365.62
2022-08-22T16:18:54.696Z,360.00
2022-08-22T16:23:50.636Z,337.50
2022-08-22T16:28:59.060Z,309.38
2022-08-22T16:33:58.114Z,292.50
2022-08-22T16:38:50.441Z,264.38
2022-08-22T16:43:55.067Z,247.50
2022-08-22T16:48:50.253Z,247.50
2022-08-22T16:53:50.262Z,236.25
2022-08-22T16:58:59.164Z,225.00
2022-08-22T17:03:51.067Z,213.75
2022-08-22T17:08:50.210Z,208.12
2022-08-22T17:13:49.932Z,191.25
2022-08-22T17:18:52.991Z,168.75
2022-08-22T17:23:49.788Z,151.88
2022-08-22T17:28:49.886Z,129.38
2022-08-22T17:33:51.724Z,112.50
2022-08-22T17:38:49.628Z,95.62
2022-08-22T17:43:49.880Z,78.75
2022-08-22T17:48:49.711Z,78.75
2022-08-22T17:53:49.563Z,67.50
2022-08-22T17:58:49.399Z,50.62
2022-08-22T18:03:49.285Z,33.75
2022-08-22T18:13:50.202Z,22.50
2022-08-22T18:18:52.126Z,16.88
2022-08-22T18:23:49.103Z,11.25
2022-08-22T18:28:48.950Z,0.00
2022-08-22T18:33:48.962Z,0.00
2022-08-22T18:38:48.968Z,0.00
2022-08-22T18:43:48.809Z,0.00
2022-08-22T18:49:13.734Z,0.00
2022-08-22T18:53:49.606Z,0.00
2022-08-22T18:58:52.520Z,0.00
2022-08-22T19:03:49.536Z,0.00
2022-08-22T19:08:53.059Z,0.00
2022-08-22T19:13:49.367Z,0.00
2022-08-22T19:18:51.270Z,0.00
2022-08-22T19:23:48.186Z,0.00
2022-08-22T19:28:48.159Z,0.00
2022-08-22T19:33:48.097Z,0.00
2022-08-22T19:38:47.987Z,0.00
2022-08-22T19:43:47.909Z,0.00
2022-08-22T19:48:47.967Z,0.00
2022-08-22T19:53:47.782Z,0.00
2022-08-22T19:58:47.840Z,0.00
2022-08-22T20:03:47.669Z,0.00
2022-08-22T20:08:47.652Z,0.00
2022-08-22T20:13:47.483Z,0.00
2022-08-22T20:19:00.175Z,0.00
2022-08-22T20:23:49.375Z,0.00
2022-08-22T20:28:47.459Z,0.00
2022-08-22T20:33:47.249Z,0.00
2022-08-22T20:38:55.448Z,0.00
2022-08-22T20:44:58.947Z,0.00
2022-08-22T20:49:58.690Z,0.00
2022-08-22T20:54:58.570Z,0.00
2022-08-22T20:59:58.507Z,0.00
2022-08-22T21:04:58.528Z,0.00
2022-08-22T21:09:58.490Z,0.00
2022-08-22T21:14:58.376Z,0.00
2022-08-22T21:19:58.355Z,0.00
2022-08-22T21:24:58.237Z,0.00
2022-08-22T21:29:58.074Z,0.00
2022-08-22T21:35:01.116Z,0.00
2022-08-22T21:39:58.023Z,0.00
2022-08-22T21:44:57.910Z,0.00
2022-08-22T21:49:57.901Z,0.00
2022-08-22T21:54:57.851Z,0.00
2022-08-22T21:59:59.116Z,0.00
2022-08-22T22:04:57.718Z,0.00
2022-08-22T22:09:57.553Z,0.00
2022-08-22T22:14:57.608Z,0.00
2022-08-22T22:19:57.416Z,0.00
2022-08-22T22:24:57.446Z,0.00
2022-08-22T22:29:57.390Z,0.00
2022-08-22T22:35:00.376Z,0.00
2022-08-22T22:39:57.283Z,0.00
2022-08-22T22:44:57.198Z,0.00
2022-08-22T22:49:56.975Z,0.00
2022-08-22T22:54:57.115Z,0.00
2022-08-22T22:59:56.913Z,0.00
2022-08-22T23:04:57.066Z,0.00
2022-08-22T23:09:56.800Z,0.00
2022-08-22T23:14:56.783Z,0.00
2022-08-22T23:19:56.600Z,0.00
2022-08-22T23:24:56.578Z,0.00
2022-08-22T23:29:56.490Z,0.00
2022-08-22T23:34:59.814Z,0.00
2022-08-22T23:39:56.429Z,0.00
2022-08-22T23:44:56.395Z,0.00
2022-08-22T23:49:56.226Z,0.00
2022-08-22T23:54:56.219Z,0.00
2022-08-22T23:59:57.319Z,0.00
